sensor_id;sensor_type;location;lat;lon;timestamp;P1;durP1;ratioP1;P2;durP2;ratioP2
13244;SDS011;6689;53.400;12.486;2023-02-23T00:01:37;25.83;;;8.75;;
13244;SDS011;6689;53.400;12.486;2023-02-23T00:04:05;21.60;;;9.90;;
13244;SDS011;6689;53.400;12.486;2023-02-23T00:06:34;26.90;;;8.50;;
13244;SDS011;6689;53.400;12.486;2023-02-23T00:09:02;27.70;;;10.18;;
13244;SDS011;6689;53.400;12.486;2023-02-23T00:11:39;23.75;;;9.32;;
13244;SDS011;6689;53.400;12.486;2023-02-23T00:14:07;14.50;;;8.15;;
13244;SDS011;6689;53.400;12.486;2023-02-23T00:16:34;22.45;;;8.77;;
13244;SDS011;6689;53.400;12.486;2023-02-23T00:19:01;23.88;;;9.25;;
13244;SDS011;6689;53.400;12.486;2023-02-23T00:21:32;22.73;;;9.18;;
13244;SDS011;6689;53.400;12.486;2023-02-23T00:24:00;24.77;;;9.35;;
13244;SDS011;6689;53.400;12.486;2023-02-23T00:26:29;23.75;;;9.50;;
13244;SDS011;6689;53.400;12.486;2023-02-23T00:29:01;21.95;;;9.25;;
13244;SDS011;6689;53.400;12.486;2023-02-23T00:31:29;20.23;;;9.30;;
13244;SDS011;6689;53.400;12.486;2023-02-23T00:33:57;20.10;;;9.38;;
13244;SDS011;6689;53.400;12.486;2023-02-23T00:36:25;24.15;;;9.68;;
13244;SDS011;6689;53.400;12.486;2023-02-23T00:38:54;22.80;;;9.27;;
13244;SDS011;6689;53.400;12.486;2023-02-23T00:41:24;26.70;;;9.48;;
13244;SDS011;6689;53.400;12.486;2023-02-23T00:43:53;23.38;;;10.27;;
13244;SDS011;6689;53.400;12.486;2023-02-23T00:46:23;28.10;;;10.95;;
13244;SDS011;6689;53.400;12.486;2023-02-23T00:48:52;18.90;;;10.98;;
13244;SDS011;6689;53.400;12.486;2023-02-23T00:51:21;25.58;;;10.45;;
13244;SDS011;6689;53.400;12.486;2023-02-23T00:53:52;26.25;;;10.40;;
13244;SDS011;6689;53.400;12.486;2023-02-23T00:56:20;30.75;;;10.38;;
13244;SDS011;6689;53.400;12.486;2023-02-23T00:58:47;28.25;;;9.60;;
13244;SDS011;6689;53.400;12.486;2023-02-23T01:01:15;22.63;;;8.88;;
13244;SDS011;6689;53.400;12.486;2023-02-23T01:03:47;30.65;;;11.02;;
13244;SDS011;6689;53.400;12.486;2023-02-23T01:06:15;29.15;;;10.13;;
13244;SDS011;6689;53.400;12.486;2023-02-23T01:08:43;26.60;;;10.68;;
13244;SDS011;6689;53.400;12.486;2023-02-23T01:11:13;24.83;;;10.73;;
13244;SDS011;6689;53.400;12.486;2023-02-23T01:13:43;22.23;;;9.82;;
13244;SDS011;6689;53.400;12.486;2023-02-23T01:16:13;23.50;;;10.52;;
13244;SDS011;6689;53.400;12.486;2023-02-23T01:18:42;25.00;;;10.50;;
13244;SDS011;6689;53.400;12.486;2023-02-23T01:21:15;24.02;;;9.38;;
13244;SDS011;6689;53.400;12.486;2023-02-23T01:23:43;24.90;;;10.73;;
13244;SDS011;6689;53.400;12.486;2023-02-23T01:26:14;24.50;;;11.95;;
13244;SDS011;6689;53.400;12.486;2023-02-23T01:28:43;25.98;;;10.60;;
13244;SDS011;6689;53.400;12.486;2023-02-23T01:31:15;26.05;;;10.65;;
13244;SDS011;6689;53.400;12.486;2023-02-23T01:33:45;28.83;;;10.63;;
13244;SDS011;6689;53.400;12.486;2023-02-23T01:36:12;25.80;;;10.40;;
13244;SDS011;6689;53.400;12.486;2023-02-23T01:38:41;28.63;;;11.13;;
13244;SDS011;6689;53.400;12.486;2023-02-23T01:41:09;26.55;;;11.20;;
13244;SDS011;6689;53.400;12.486;2023-02-23T01:46:29;26.75;;;13.60;;
13244;SDS011;6689;53.400;12.486;2023-02-23T01:48:59;23.60;;;10.82;;
13244;SDS011;6689;53.400;12.486;2023-02-23T01:51:29;31.17;;;13.25;;
13244;SDS011;6689;53.400;12.486;2023-02-23T01:53:59;30.38;;;12.20;;
13244;SDS011;6689;53.400;12.486;2023-02-23T01:56:33;26.27;;;12.25;;
13244;SDS011;6689;53.400;12.486;2023-02-23T01:59:07;30.88;;;12.50;;
13244;SDS011;6689;53.400;12.486;2023-02-23T02:01:37;28.13;;;11.45;;
13244;SDS011;6689;53.400;12.486;2023-02-23T02:04:08;29.02;;;11.52;;
13244;SDS011;6689;53.400;12.486;2023-02-23T02:06:40;21.20;;;11.95;;
13244;SDS011;6689;53.400;12.486;2023-02-23T02:09:12;26.27;;;13.23;;
13244;SDS011;6689;53.400;12.486;2023-02-23T02:11:42;23.77;;;12.07;;
13244;SDS011;6689;53.400;12.486;2023-02-23T02:14:11;26.25;;;12.65;;
13244;SDS011;6689;53.400;12.486;2023-02-23T02:16:55;29.65;;;13.13;;
13244;SDS011;6689;53.400;12.486;2023-02-23T02:20:03;28.13;;;14.60;;
13244;SDS011;6689;53.400;12.486;2023-02-23T02:23:04;30.20;;;13.60;;
13244;SDS011;6689;53.400;12.486;2023-02-23T02:26:09;22.00;;;11.75;;
13244;SDS011;6689;53.400;12.486;2023-02-23T02:34:47;22.30;;;13.02;;
13244;SDS011;6689;53.400;12.486;2023-02-23T02:37:43;26.42;;;13.05;;
13244;SDS011;6689;53.400;12.486;2023-02-23T02:40:23;25.23;;;12.18;;
13244;SDS011;6689;53.400;12.486;2023-02-23T02:42:57;25.35;;;12.70;;
13244;SDS011;6689;53.400;12.486;2023-02-23T02:45:33;29.55;;;13.57;;
13244;SDS011;6689;53.400;12.486;2023-02-23T02:48:09;26.50;;;12.48;;
13244;SDS011;6689;53.400;12.486;2023-02-23T02:50:42;28.17;;;12.27;;
13244;SDS011;6689;53.400;12.486;2023-02-23T02:53:19;24.17;;;12.43;;
13244;SDS011;6689;53.400;12.486;2023-02-23T02:55:53;20.65;;;11.90;;
13244;SDS011;6689;53.400;12.486;2023-02-23T02:58:24;32.47;;;13.25;;
13244;SDS011;6689;53.400;12.486;2023-02-23T03:00:51;28.10;;;12.50;;
13244;SDS011;6689;53.400;12.486;2023-02-23T03:03:38;30.03;;;13.03;;
13244;SDS011;6689;53.400;12.486;2023-02-23T03:06:25;37.53;;;16.58;;
13244;SDS011;6689;53.400;12.486;2023-02-23T03:09:22;30.95;;;13.18;;
13244;SDS011;6689;53.400;12.486;2023-02-23T03:12:18;24.02;;;13.07;;
13244;SDS011;6689;53.400;12.486;2023-02-23T03:15:13;27.20;;;13.25;;
13244;SDS011;6689;53.400;12.486;2023-02-23T03:18:14;24.67;;;11.85;;
13244;SDS011;6689;53.400;12.486;2023-02-23T03:21:13;26.85;;;13.38;;
13244;SDS011;6689;53.400;12.486;2023-02-23T03:24:06;32.08;;;12.95;;
13244;SDS011;6689;53.400;12.486;2023-02-23T03:27:00;25.67;;;12.43;;
13244;SDS011;6689;53.400;12.486;2023-02-23T03:29:50;28.55;;;12.90;;
13244;SDS011;6689;53.400;12.486;2023-02-23T03:32:40;25.92;;;12.63;;
13244;SDS011;6689;53.400;12.486;2023-02-23T03:35:32;31.20;;;15.00;;
13244;SDS011;6689;53.400;12.486;2023-02-23T03:38:27;23.92;;;13.57;;
13244;SDS011;6689;53.400;12.486;2023-02-23T03:41:17;25.60;;;12.57;;
13244;SDS011;6689;53.400;12.486;2023-02-23T03:44:06;27.88;;;12.82;;
13244;SDS011;6689;53.400;12.486;2023-02-23T03:46:54;29.25;;;13.95;;
13244;SDS011;6689;53.400;12.486;2023-02-23T03:49:40;26.23;;;12.32;;
13244;SDS011;6689;53.400;12.486;2023-02-23T03:52:26;25.90;;;13.45;;
13244;SDS011;6689;53.400;12.486;2023-02-23T03:55:16;25.13;;;13.65;;
13244;SDS011;6689;53.400;12.486;2023-02-23T03:58:04;34.88;;;13.93;;
13244;SDS011;6689;53.400;12.486;2023-02-23T04:00:55;26.58;;;14.35;;
13244;SDS011;6689;53.400;12.486;2023-02-23T04:03:44;29.17;;;13.25;;
13244;SDS011;6689;53.400;12.486;2023-02-23T04:06:33;28.48;;;14.27;;
13244;SDS011;6689;53.400;12.486;2023-02-23T04:09:20;25.25;;;13.85;;
13244;SDS011;6689;53.400;12.486;2023-02-23T04:12:06;33.03;;;14.15;;
13244;SDS011;6689;53.400;12.486;2023-02-23T04:14:59;23.65;;;13.32;;
13244;SDS011;6689;53.400;12.486;2023-02-23T04:17:32;26.10;;;13.77;;
13244;SDS011;6689;53.400;12.486;2023-02-23T04:20:00;31.90;;;13.48;;
13244;SDS011;6689;53.400;12.486;2023-02-23T04:22:27;26.27;;;12.88;;
13244;SDS011;6689;53.400;12.486;2023-02-23T04:24:54;26.98;;;14.25;;
13244;SDS011;6689;53.400;12.486;2023-02-23T04:27:22;25.95;;;12.48;;
13244;SDS011;6689;53.400;12.486;2023-02-23T04:29:49;28.70;;;13.30;;
13244;SDS011;6689;53.400;12.486;2023-02-23T04:32:17;23.73;;;13.10;;
13244;SDS011;6689;53.400;12.486;2023-02-23T04:34:48;24.80;;;13.60;;
13244;SDS011;6689;53.400;12.486;2023-02-23T04:37:15;22.02;;;12.73;;
13244;SDS011;6689;53.400;12.486;2023-02-23T04:39:42;23.58;;;13.32;;
13244;SDS011;6689;53.400;12.486;2023-02-23T04:42:13;26.83;;;12.75;;
13244;SDS011;6689;53.400;12.486;2023-02-23T04:44:42;23.75;;;12.75;;
13244;SDS011;6689;53.400;12.486;2023-02-23T04:47:10;23.35;;;13.00;;
13244;SDS011;6689;53.400;12.486;2023-02-23T04:49:37;26.48;;;13.25;;
13244;SDS011;6689;53.400;12.486;2023-02-23T04:52:06;27.15;;;13.95;;
13244;SDS011;6689;53.400;12.486;2023-02-23T04:54:36;26.33;;;13.38;;
13244;SDS011;6689;53.400;12.486;2023-02-23T04:57:04;27.13;;;13.48;;
13244;SDS011;6689;53.400;12.486;2023-02-23T04:59:32;28.90;;;13.70;;
13244;SDS011;6689;53.400;12.486;2023-02-23T05:01:59;25.80;;;13.13;;
13244;SDS011;6689;53.400;12.486;2023-02-23T05:04:27;20.50;;;12.65;;
13244;SDS011;6689;53.400;12.486;2023-02-23T05:06:54;27.45;;;13.10;;
13244;SDS011;6689;53.400;12.486;2023-02-23T05:09:23;21.38;;;13.55;;
13244;SDS011;6689;53.400;12.486;2023-02-23T05:11:51;30.33;;;14.60;;
13244;SDS011;6689;53.400;12.486;2023-02-23T05:14:19;30.88;;;14.98;;
13244;SDS011;6689;53.400;12.486;2023-02-23T05:16:46;24.02;;;13.95;;
13244;SDS011;6689;53.400;12.486;2023-02-23T05:19:13;27.20;;;13.05;;
13244;SDS011;6689;53.400;12.486;2023-02-23T05:21:41;24.35;;;13.52;;
13244;SDS011;6689;53.400;12.486;2023-02-23T05:24:09;30.67;;;14.73;;
13244;SDS011;6689;53.400;12.486;2023-02-23T05:26:38;25.90;;;12.48;;
13244;SDS011;6689;53.400;12.486;2023-02-23T05:29:05;25.00;;;14.00;;
13244;SDS011;6689;53.400;12.486;2023-02-23T05:31:33;28.13;;;14.40;;
13244;SDS011;6689;53.400;12.486;2023-02-23T05:34:00;25.98;;;13.82;;
13244;SDS011;6689;53.400;12.486;2023-02-23T05:36:27;22.45;;;12.25;;
13244;SDS011;6689;53.400;12.486;2023-02-23T05:38:55;27.65;;;14.02;;
13244;SDS011;6689;53.400;12.486;2023-02-23T05:41:22;27.52;;;14.25;;
13244;SDS011;6689;53.400;12.486;2023-02-23T05:43:51;28.73;;;14.90;;
13244;SDS011;6689;53.400;12.486;2023-02-23T05:46:20;28.05;;;13.15;;
13244;SDS011;6689;53.400;12.486;2023-02-23T05:48:49;21.70;;;13.43;;
13244;SDS011;6689;53.400;12.486;2023-02-23T05:51:17;26.02;;;14.40;;
13244;SDS011;6689;53.400;12.486;2023-02-23T05:53:44;30.52;;;14.80;;
13244;SDS011;6689;53.400;12.486;2023-02-23T05:56:13;30.92;;;14.75;;
13244;SDS011;6689;53.400;12.486;2023-02-23T05:58:44;32.83;;;14.38;;
13244;SDS011;6689;53.400;12.486;2023-02-23T06:01:14;33.55;;;16.20;;
13244;SDS011;6689;53.400;12.486;2023-02-23T06:03:41;33.08;;;14.60;;
13244;SDS011;6689;53.400;12.486;2023-02-23T06:06:09;25.38;;;13.52;;
13244;SDS011;6689;53.400;12.486;2023-02-23T06:08:36;32.75;;;15.50;;
13244;SDS011;6689;53.400;12.486;2023-02-23T06:11:04;24.98;;;13.38;;
13244;SDS011;6689;53.400;12.486;2023-02-23T06:13:31;27.08;;;13.50;;
13244;SDS011;6689;53.400;12.486;2023-02-23T06:15:58;29.35;;;15.45;;
13244;SDS011;6689;53.400;12.486;2023-02-23T06:18:28;29.20;;;14.43;;
13244;SDS011;6689;53.400;12.486;2023-02-23T06:20:57;28.48;;;14.75;;
13244;SDS011;6689;53.400;12.486;2023-02-23T06:23:25;29.45;;;14.25;;
13244;SDS011;6689;53.400;12.486;2023-02-23T06:25:52;27.52;;;15.27;;
13244;SDS011;6689;53.400;12.486;2023-02-23T06:28:23;25.83;;;15.27;;
13244;SDS011;6689;53.400;12.486;2023-02-23T06:30:51;31.75;;;13.85;;
13244;SDS011;6689;53.400;12.486;2023-02-23T06:33:18;24.52;;;14.32;;
13244;SDS011;6689;53.400;12.486;2023-02-23T06:35:47;31.58;;;15.27;;
13244;SDS011;6689;53.400;12.486;2023-02-23T06:38:15;28.55;;;15.77;;
13244;SDS011;6689;53.400;12.486;2023-02-23T06:40:42;23.58;;;14.20;;
13244;SDS011;6689;53.400;12.486;2023-02-23T06:43:09;33.70;;;16.98;;
13244;SDS011;6689;53.400;12.486;2023-02-23T06:45:36;27.08;;;15.43;;
13244;SDS011;6689;53.400;12.486;2023-02-23T06:48:06;30.00;;;15.35;;
13244;SDS011;6689;53.400;12.486;2023-02-23T06:50:34;30.00;;;14.88;;
13244;SDS011;6689;53.400;12.486;2023-02-23T06:53:03;28.42;;;14.50;;
13244;SDS011;6689;53.400;12.486;2023-02-23T06:55:30;28.85;;;15.45;;
13244;SDS011;6689;53.400;12.486;2023-02-23T06:57:58;31.98;;;16.58;;
13244;SDS011;6689;53.400;12.486;2023-02-23T07:00:28;23.52;;;15.48;;
13244;SDS011;6689;53.400;12.486;2023-02-23T07:02:56;29.10;;;13.98;;
13244;SDS011;6689;53.400;12.486;2023-02-23T07:05:23;26.13;;;13.88;;
13244;SDS011;6689;53.400;12.486;2023-02-23T07:07:51;27.83;;;13.73;;
13244;SDS011;6689;53.400;12.486;2023-02-23T07:10:20;25.60;;;14.43;;
13244;SDS011;6689;53.400;12.486;2023-02-23T07:12:47;25.73;;;14.32;;
13244;SDS011;6689;53.400;12.486;2023-02-23T07:15:15;25.50;;;13.45;;
13244;SDS011;6689;53.400;12.486;2023-02-23T07:17:44;27.50;;;14.85;;
13244;SDS011;6689;53.400;12.486;2023-02-23T07:20:13;28.45;;;14.18;;
13244;SDS011;6689;53.400;12.486;2023-02-23T07:22:41;26.15;;;14.02;;
13244;SDS011;6689;53.400;12.486;2023-02-23T07:25:09;26.20;;;15.02;;
13244;SDS011;6689;53.400;12.486;2023-02-23T07:27:39;30.13;;;14.30;;
13244;SDS011;6689;53.400;12.486;2023-02-23T07:30:10;27.85;;;14.13;;
13244;SDS011;6689;53.400;12.486;2023-02-23T07:32:40;29.08;;;16.13;;
13244;SDS011;6689;53.400;12.486;2023-02-23T07:35:10;30.77;;;15.38;;
13244;SDS011;6689;53.400;12.486;2023-02-23T07:37:38;25.70;;;15.50;;
13244;SDS011;6689;53.400;12.486;2023-02-23T07:40:06;27.75;;;14.52;;
13244;SDS011;6689;53.400;12.486;2023-02-23T07:42:34;29.10;;;15.30;;
13244;SDS011;6689;53.400;12.486;2023-02-23T07:45:04;21.80;;;14.25;;
13244;SDS011;6689;53.400;12.486;2023-02-23T07:47:32;25.60;;;14.00;;
13244;SDS011;6689;53.400;12.486;2023-02-23T07:50:02;34.95;;;15.40;;
13244;SDS011;6689;53.400;12.486;2023-02-23T07:52:34;29.88;;;15.82;;
13244;SDS011;6689;53.400;12.486;2023-02-23T07:55:03;22.95;;;14.82;;
13244;SDS011;6689;53.400;12.486;2023-02-23T07:57:31;29.55;;;16.70;;
13244;SDS011;6689;53.400;12.486;2023-02-23T07:59:59;27.08;;;15.02;;
13244;SDS011;6689;53.400;12.486;2023-02-23T08:02:28;31.90;;;15.75;;
13244;SDS011;6689;53.400;12.486;2023-02-23T08:04:56;29.05;;;14.55;;
13244;SDS011;6689;53.400;12.486;2023-02-23T08:07:24;28.73;;;14.88;;
13244;SDS011;6689;53.400;12.486;2023-02-23T08:09:51;27.08;;;15.85;;
13244;SDS011;6689;53.400;12.486;2023-02-23T08:12:20;27.40;;;15.48;;
13244;SDS011;6689;53.400;12.486;2023-02-23T08:14:47;34.78;;;16.58;;
13244;SDS011;6689;53.400;12.486;2023-02-23T08:17:14;25.55;;;14.80;;
13244;SDS011;6689;53.400;12.486;2023-02-23T08:19:43;28.45;;;14.80;;
13244;SDS011;6689;53.400;12.486;2023-02-23T08:22:10;32.55;;;15.00;;
13244;SDS011;6689;53.400;12.486;2023-02-23T08:24:38;31.67;;;16.45;;
13244;SDS011;6689;53.400;12.486;2023-02-23T08:27:05;30.05;;;16.25;;
13244;SDS011;6689;53.400;12.486;2023-02-23T08:29:33;29.92;;;15.45;;
13244;SDS011;6689;53.400;12.486;2023-02-23T08:32:00;26.83;;;15.68;;
13244;SDS011;6689;53.400;12.486;2023-02-23T08:34:28;33.70;;;15.27;;
13244;SDS011;6689;53.400;12.486;2023-02-23T08:36:58;29.98;;;17.08;;
13244;SDS011;6689;53.400;12.486;2023-02-23T08:39:25;31.10;;;14.70;;
13244;SDS011;6689;53.400;12.486;2023-02-23T08:41:52;30.73;;;16.25;;
13244;SDS011;6689;53.400;12.486;2023-02-23T08:44:20;29.35;;;17.25;;
13244;SDS011;6689;53.400;12.486;2023-02-23T08:46:47;28.45;;;16.23;;
13244;SDS011;6689;53.400;12.486;2023-02-23T08:49:14;30.63;;;17.38;;
13244;SDS011;6689;53.400;12.486;2023-02-23T08:51:42;36.90;;;17.00;;
13244;SDS011;6689;53.400;12.486;2023-02-23T08:54:12;26.48;;;15.90;;
13244;SDS011;6689;53.400;12.486;2023-02-23T08:56:42;28.80;;;17.02;;
13244;SDS011;6689;53.400;12.486;2023-02-23T08:59:10;30.65;;;16.23;;
13244;SDS011;6689;53.400;12.486;2023-02-23T09:01:38;30.45;;;17.25;;
13244;SDS011;6689;53.400;12.486;2023-02-23T09:04:07;35.92;;;18.00;;
13244;SDS011;6689;53.400;12.486;2023-02-23T09:06:35;28.63;;;16.67;;
13244;SDS011;6689;53.400;12.486;2023-02-23T09:09:03;36.72;;;16.90;;
13244;SDS011;6689;53.400;12.486;2023-02-23T09:11:33;28.73;;;15.80;;
13244;SDS011;6689;53.400;12.486;2023-02-23T09:14:00;36.05;;;17.40;;
13244;SDS011;6689;53.400;12.486;2023-02-23T09:16:27;36.92;;;17.85;;
13244;SDS011;6689;53.400;12.486;2023-02-23T09:18:55;32.13;;;17.45;;
13244;SDS011;6689;53.400;12.486;2023-02-23T09:21:23;35.60;;;19.05;;
13244;SDS011;6689;53.400;12.486;2023-02-23T09:23:53;33.00;;;16.60;;
13244;SDS011;6689;53.400;12.486;2023-02-23T09:26:20;36.08;;;17.83;;
13244;SDS011;6689;53.400;12.486;2023-02-23T09:28:50;48.35;;;22.05;;
13244;SDS011;6689;53.400;12.486;2023-02-23T09:31:18;40.17;;;21.05;;
13244;SDS011;6689;53.400;12.486;2023-02-23T09:33:50;57.90;;;21.67;;
13244;SDS011;6689;53.400;12.486;2023-02-23T09:36:20;51.97;;;23.77;;
13244;SDS011;6689;53.400;12.486;2023-02-23T09:38:49;48.45;;;20.88;;
13244;SDS011;6689;53.400;12.486;2023-02-23T09:41:27;46.97;;;20.05;;
13244;SDS011;6689;53.400;12.486;2023-02-23T09:44:12;47.70;;;20.90;;
13244;SDS011;6689;53.400;12.486;2023-02-23T09:46:47;44.72;;;20.63;;
13244;SDS011;6689;53.400;12.486;2023-02-23T09:49:19;47.92;;;21.40;;
13244;SDS011;6689;53.400;12.486;2023-02-23T09:51:50;48.17;;;21.13;;
13244;SDS011;6689;53.400;12.486;2023-02-23T09:54:22;44.70;;;22.52;;
13244;SDS011;6689;53.400;12.486;2023-02-23T09:56:52;50.53;;;24.02;;
13244;SDS011;6689;53.400;12.486;2023-02-23T09:59:24;50.38;;;23.88;;
13244;SDS011;6689;53.400;12.486;2023-02-23T10:01:55;57.38;;;22.92;;
13244;SDS011;6689;53.400;12.486;2023-02-23T10:04:31;52.83;;;22.88;;
13244;SDS011;6689;53.400;12.486;2023-02-23T10:07:05;41.00;;;21.40;;
13244;SDS011;6689;53.400;12.486;2023-02-23T10:09:46;39.95;;;20.45;;
13244;SDS011;6689;53.400;12.486;2023-02-23T10:12:25;52.60;;;22.23;;
13244;SDS011;6689;53.400;12.486;2023-02-23T10:15:05;49.13;;;21.60;;
13244;SDS011;6689;53.400;12.486;2023-02-23T10:17:45;50.23;;;23.47;;
13244;SDS011;6689;53.400;12.486;2023-02-23T10:20:22;52.13;;;22.67;;
13244;SDS011;6689;53.400;12.486;2023-02-23T10:22:55;47.92;;;22.20;;
13244;SDS011;6689;53.400;12.486;2023-02-23T10:25:29;56.83;;;25.23;;
13244;SDS011;6689;53.400;12.486;2023-02-23T10:28:00;50.08;;;24.02;;
13244;SDS011;6689;53.400;12.486;2023-02-23T10:30:31;52.47;;;25.75;;
13244;SDS011;6689;53.400;12.486;2023-02-23T10:33:00;56.22;;;24.85;;
13244;SDS011;6689;53.400;12.486;2023-02-23T10:35:38;54.53;;;26.00;;
13244;SDS011;6689;53.400;12.486;2023-02-23T10:38:07;59.72;;;25.95;;
13244;SDS011;6689;53.400;12.486;2023-02-23T10:40:40;50.35;;;22.80;;
13244;SDS011;6689;53.400;12.486;2023-02-23T10:43:12;52.78;;;23.75;;
13244;SDS011;6689;53.400;12.486;2023-02-23T10:45:44;54.28;;;25.75;;
13244;SDS011;6689;53.400;12.486;2023-02-23T10:48:15;57.80;;;24.33;;
13244;SDS011;6689;53.400;12.486;2023-02-23T10:50:45;52.78;;;26.10;;
13244;SDS011;6689;53.400;12.486;2023-02-23T10:53:15;56.72;;;27.40;;
13244;SDS011;6689;53.400;12.486;2023-02-23T10:55:47;53.47;;;25.38;;
13244;SDS011;6689;53.400;12.486;2023-02-23T10:58:28;56.25;;;24.95;;
13244;SDS011;6689;53.400;12.486;2023-02-23T11:00:58;50.08;;;22.85;;
13244;SDS011;6689;53.400;12.486;2023-02-23T11:03:29;46.95;;;23.85;;
13244;SDS011;6689;53.400;12.486;2023-02-23T11:05:59;54.35;;;26.15;;
13244;SDS011;6689;53.400;12.486;2023-02-23T11:08:29;53.35;;;25.35;;
13244;SDS011;6689;53.400;12.486;2023-02-23T11:10:58;55.65;;;24.38;;
13244;SDS011;6689;53.400;12.486;2023-02-23T11:13:40;45.65;;;22.10;;
13244;SDS011;6689;53.400;12.486;2023-02-23T11:16:15;57.65;;;21.33;;
13244;SDS011;6689;53.400;12.486;2023-02-23T11:18:47;48.47;;;23.88;;
13244;SDS011;6689;53.400;12.486;2023-02-23T11:21:20;42.30;;;21.38;;
13244;SDS011;6689;53.400;12.486;2023-02-23T11:23:56;49.70;;;24.00;;
13244;SDS011;6689;53.400;12.486;2023-02-23T11:26:31;45.25;;;22.83;;
13244;SDS011;6689;53.400;12.486;2023-02-23T11:29:08;46.42;;;22.23;;
13244;SDS011;6689;53.400;12.486;2023-02-23T11:31:44;48.13;;;22.85;;
13244;SDS011;6689;53.400;12.486;2023-02-23T11:34:19;46.65;;;22.67;;
13244;SDS011;6689;53.400;12.486;2023-02-23T11:36:57;48.10;;;22.58;;
13244;SDS011;6689;53.400;12.486;2023-02-23T11:39:29;45.33;;;22.45;;
13244;SDS011;6689;53.400;12.486;2023-02-23T11:42:05;43.70;;;24.30;;
13244;SDS011;6689;53.400;12.486;2023-02-23T11:44:40;50.30;;;25.70;;
13244;SDS011;6689;53.400;12.486;2023-02-23T11:47:14;49.53;;;25.05;;
13244;SDS011;6689;53.400;12.486;2023-02-23T11:49:44;49.63;;;25.20;;
13244;SDS011;6689;53.400;12.486;2023-02-23T11:52:15;45.53;;;24.77;;
13244;SDS011;6689;53.400;12.486;2023-02-23T11:54:47;50.40;;;26.95;;
13244;SDS011;6689;53.400;12.486;2023-02-23T11:57:20;54.63;;;27.10;;
13244;SDS011;6689;53.400;12.486;2023-02-23T11:59:49;46.72;;;26.02;;
13244;SDS011;6689;53.400;12.486;2023-02-23T12:02:22;46.10;;;25.92;;
13244;SDS011;6689;53.400;12.486;2023-02-23T12:04:52;46.47;;;27.27;;
13244;SDS011;6689;53.400;12.486;2023-02-23T12:07:29;48.90;;;27.63;;
13244;SDS011;6689;53.400;12.486;2023-02-23T12:10:04;44.55;;;26.13;;
13244;SDS011;6689;53.400;12.486;2023-02-23T12:12:41;51.40;;;25.45;;
13244;SDS011;6689;53.400;12.486;2023-02-23T12:15:18;46.55;;;26.58;;
13244;SDS011;6689;53.400;12.486;2023-02-23T12:17:53;45.13;;;26.05;;
13244;SDS011;6689;53.400;12.486;2023-02-23T12:20:24;47.35;;;25.83;;
13244;SDS011;6689;53.400;12.486;2023-02-23T12:22:57;51.75;;;26.88;;
13244;SDS011;6689;53.400;12.486;2023-02-23T12:25:29;49.75;;;28.00;;
13244;SDS011;6689;53.400;12.486;2023-02-23T12:28:02;50.28;;;27.27;;
13244;SDS011;6689;53.400;12.486;2023-02-23T12:30:38;51.67;;;28.13;;
13244;SDS011;6689;53.400;12.486;2023-02-23T12:35:48;52.78;;;25.10;;
13244;SDS011;6689;53.400;12.486;2023-02-23T12:38:24;52.83;;;24.77;;
13244;SDS011;6689;53.400;12.486;2023-02-23T12:40:59;55.00;;;28.17;;
13244;SDS011;6689;53.400;12.486;2023-02-23T12:43:32;46.67;;;25.95;;
13244;SDS011;6689;53.400;12.486;2023-02-23T12:46:08;61.27;;;27.20;;
13244;SDS011;6689;53.400;12.486;2023-02-23T12:48:46;50.85;;;28.35;;
13244;SDS011;6689;53.400;12.486;2023-02-23T12:51:24;49.65;;;27.92;;
13244;SDS011;6689;53.400;12.486;2023-02-23T12:53:58;54.70;;;27.52;;
13244;SDS011;6689;53.400;12.486;2023-02-23T12:56:31;54.08;;;26.30;;
13244;SDS011;6689;53.400;12.486;2023-02-23T12:59:18;51.65;;;27.63;;
13244;SDS011;6689;53.400;12.486;2023-02-23T13:02:04;58.30;;;26.10;;
13244;SDS011;6689;53.400;12.486;2023-02-23T13:07:48;51.85;;;28.33;;
13244;SDS011;6689;53.400;12.486;2023-02-23T13:10:24;48.45;;;27.75;;
13244;SDS011;6689;53.400;12.486;2023-02-23T13:13:03;52.13;;;26.13;;
13244;SDS011;6689;53.400;12.486;2023-02-23T13:15:45;54.92;;;28.45;;
13244;SDS011;6689;53.400;12.486;2023-02-23T13:18:19;60.60;;;29.40;;
13244;SDS011;6689;53.400;12.486;2023-02-23T13:20:53;50.72;;;27.02;;
13244;SDS011;6689;53.400;12.486;2023-02-23T13:23:25;46.45;;;26.33;;
13244;SDS011;6689;53.400;12.486;2023-02-23T13:25:57;51.15;;;26.83;;
13244;SDS011;6689;53.400;12.486;2023-02-23T13:28:38;47.15;;;27.60;;
13244;SDS011;6689;53.400;12.486;2023-02-23T13:31:19;47.10;;;26.63;;
13244;SDS011;6689;53.400;12.486;2023-02-23T13:33:49;55.78;;;26.27;;
13244;SDS011;6689;53.400;12.486;2023-02-23T13:36:21;55.70;;;27.23;;
13244;SDS011;6689;53.400;12.486;2023-02-23T13:38:57;53.92;;;29.23;;
13244;SDS011;6689;53.400;12.486;2023-02-23T13:44:18;55.33;;;27.15;;
13244;SDS011;6689;53.400;12.486;2023-02-23T13:46:48;56.13;;;29.73;;
13244;SDS011;6689;53.400;12.486;2023-02-23T13:52:44;54.70;;;29.08;;
13244;SDS011;6689;53.400;12.486;2023-02-23T13:58:02;53.70;;;27.02;;
13244;SDS011;6689;53.400;12.486;2023-02-23T14:00:31;52.42;;;26.33;;
13244;SDS011;6689;53.400;12.486;2023-02-23T14:03:01;57.33;;;28.33;;
13244;SDS011;6689;53.400;12.486;2023-02-23T14:05:29;57.92;;;28.05;;
13244;SDS011;6689;53.400;12.486;2023-02-23T14:08:17;52.53;;;26.95;;
13244;SDS011;6689;53.400;12.486;2023-02-23T14:10:48;53.95;;;26.98;;
13244;SDS011;6689;53.400;12.486;2023-02-23T14:13:24;53.05;;;26.40;;
13244;SDS011;6689;53.400;12.486;2023-02-23T14:16:10;53.78;;;27.25;;
13244;SDS011;6689;53.400;12.486;2023-02-23T14:18:55;51.85;;;27.27;;
13244;SDS011;6689;53.400;12.486;2023-02-23T14:21:36;51.15;;;27.52;;
13244;SDS011;6689;53.400;12.486;2023-02-23T14:24:17;51.13;;;27.58;;
13244;SDS011;6689;53.400;12.486;2023-02-23T14:27:12;48.63;;;25.67;;
13244;SDS011;6689;53.400;12.486;2023-02-23T14:30:05;56.30;;;25.63;;
13244;SDS011;6689;53.400;12.486;2023-02-23T14:32:49;56.65;;;27.40;;
13244;SDS011;6689;53.400;12.486;2023-02-23T14:38:09;57.47;;;25.92;;
13244;SDS011;6689;53.400;12.486;2023-02-23T14:40:43;49.17;;;26.80;;
13244;SDS011;6689;53.400;12.486;2023-02-23T14:46:10;51.50;;;25.98;;
13244;SDS011;6689;53.400;12.486;2023-02-23T14:48:43;56.53;;;27.45;;
13244;SDS011;6689;53.400;12.486;2023-02-23T14:51:23;53.40;;;26.65;;
13244;SDS011;6689;53.400;12.486;2023-02-23T14:53:59;59.35;;;25.23;;
13244;SDS011;6689;53.400;12.486;2023-02-23T14:56:28;50.92;;;25.88;;
13244;SDS011;6689;53.400;12.486;2023-02-23T14:58:58;50.50;;;26.02;;
13244;SDS011;6689;53.400;12.486;2023-02-23T15:01:35;51.58;;;25.40;;
13244;SDS011;6689;53.400;12.486;2023-02-23T15:04:08;57.58;;;26.02;;
13244;SDS011;6689;53.400;12.486;2023-02-23T15:06:37;52.17;;;25.58;;
13244;SDS011;6689;53.400;12.486;2023-02-23T15:09:06;58.13;;;26.58;;
13244;SDS011;6689;53.400;12.486;2023-02-23T15:11:41;57.22;;;24.42;;
13244;SDS011;6689;53.400;12.486;2023-02-23T15:14:10;58.50;;;25.20;;
13244;SDS011;6689;53.400;12.486;2023-02-23T15:16:40;47.70;;;24.15;;
13244;SDS011;6689;53.400;12.486;2023-02-23T15:19:12;57.47;;;26.17;;
13244;SDS011;6689;53.400;12.486;2023-02-23T15:21:48;55.30;;;25.75;;
13244;SDS011;6689;53.400;12.486;2023-02-23T15:24:20;51.70;;;26.80;;
13244;SDS011;6689;53.400;12.486;2023-02-23T15:26:53;55.07;;;26.17;;